createdAt,value
2019-01-05T00:00:49.211Z,22.73
2019-01-05T00:03:45.977Z,22.20
2019-01-05T00:06:36.636Z,24.53
2019-01-05T00:09:26.278Z,22.80
2019-01-05T00:12:14.855Z,23.43
2019-01-05T00:15:07.671Z,24.20
2019-01-05T00:17:54.269Z,22.90
2019-01-05T00:20:51.192Z,23.20
2019-01-05T00:23:31.279Z,23.23
2019-01-05T00:26:20.154Z,22.63
2019-01-05T00:29:09.580Z,25.10
2019-01-05T00:32:00.689Z,23.97
2019-01-05T00:34:59.487Z,23.83
2019-01-05T00:38:05.986Z,23.43
2019-01-05T00:41:01.488Z,24.50
2019-01-05T00:43:49.547Z,23.67
2019-01-05T00:46:36.225Z,23.80
2019-01-05T00:49:28.387Z,23.80
2019-01-05T00:52:18.278Z,22.03
2019-01-05T00:55:13.968Z,23.80
2019-01-05T00:58:00.529Z,23.40
2019-01-05T01:00:51.551Z,22.83
2019-01-05T01:03:51.325Z,23.23
2019-01-05T01:06:39.932Z,23.83
2019-01-05T01:09:26.640Z,24.17
2019-01-05T01:12:13.533Z,23.90
2019-01-05T01:15:04.909Z,24.03
2019-01-05T01:17:57.195Z,23.27
2019-01-05T01:20:44.949Z,24.40
2019-01-05T01:23:32.052Z,24.57
2019-01-05T01:26:26.485Z,24.63
2019-01-05T01:29:29.332Z,24.37
2019-01-05T01:32:20.149Z,25.13
2019-01-05T01:35:04.287Z,24.43
2019-01-05T01:38:37.026Z,25.83
2019-01-05T01:41:27.536Z,24.13
2019-01-05T01:44:16.563Z,24.97
2019-01-05T01:47:16.895Z,24.80
2019-01-05T01:50:03.489Z,24.00
2019-01-05T01:52:51.265Z,25.27
2019-01-05T01:55:38.311Z,25.40
2019-01-05T01:58:35.293Z,25.07
2019-01-05T02:01:32.584Z,24.60
2019-01-05T02:04:23.378Z,24.63
2019-01-05T02:07:11.131Z,25.27
2019-01-05T02:10:05.034Z,24.60
2019-01-05T02:13:02.416Z,23.17
2019-01-05T02:16:02.883Z,24.00
2019-01-05T02:19:38.005Z,24.10
2019-01-05T02:22:55.440Z,25.80
2019-01-05T02:26:16.058Z,24.63
2019-01-05T02:29:58.954Z,24.40
2019-01-05T02:33:06.907Z,24.50
2019-01-05T02:36:27.535Z,24.87
2019-01-05T02:39:51.033Z,24.83
2019-01-05T02:43:04.496Z,24.87
2019-01-05T02:46:43.070Z,26.10
2019-01-05T02:50:33.737Z,25.80
2019-01-05T02:53:48.682Z,24.33
2019-01-05T02:57:19.503Z,25.13
2019-01-05T03:00:25.028Z,24.87
2019-01-05T03:03:37.988Z,25.20
2019-01-05T03:07:13.015Z,25.17
2019-01-05T03:10:31.028Z,25.63
2019-01-05T03:14:23.720Z,23.80
2019-01-05T03:17:31.409Z,24.43
2019-01-05T03:20:54.657Z,25.27
2019-01-05T03:24:22.084Z,24.87
2019-01-05T03:28:03.075Z,25.47
2019-01-05T03:31:23.258Z,24.13
2019-01-05T03:35:00.249Z,23.57
2019-01-05T03:38:53.499Z,23.77
2019-01-05T03:42:16.576Z,24.10
2019-01-05T03:45:59.682Z,24.53
2019-01-05T03:49:09.537Z,25.43
2019-01-05T03:52:46.419Z,24.90
2019-01-05T03:56:38.595Z,24.60
2019-01-05T04:00:20.733Z,25.10
2019-01-05T04:03:50.089Z,24.43
2019-01-05T04:07:39.404Z,24.70
2019-01-05T04:11:16.373Z,23.40
2019-01-05T04:14:51.270Z,24.27
2019-01-05T04:18:15.448Z,25.73
2019-01-05T04:22:16.988Z,23.73
2019-01-05T04:25:45.056Z,23.83
2019-01-05T04:29:35.096Z,22.93
2019-01-05T04:33:04.974Z,23.17
2019-01-05T04:36:31.905Z,23.17
2019-01-05T04:40:18.880Z,23.40
2019-01-05T04:43:34.876Z,21.90
2019-01-05T04:47:10.615Z,23.10
2019-01-05T04:50:40.875Z,23.33
2019-01-05T04:54:25.203Z,21.40
2019-01-05T04:57:37.173Z,21.70
2019-01-05T05:01:20.278Z,19.07
2019-01-05T05:04:50.533Z,22.07
2019-01-05T05:08:01.980Z,20.63
2019-01-05T05:11:27.857Z,20.77
2019-01-05T05:15:09.965Z,20.23
2019-01-05T05:18:57.504Z,19.53
2019-01-05T05:22:27.404Z,19.67
2019-01-05T05:25:48.222Z,18.87
2019-01-05T05:29:30.207Z,18.83
2019-01-05T05:33:06.522Z,18.93
2019-01-05T05:36:39.636Z,19.10
2019-01-05T05:40:20.749Z,19.47
2019-01-05T05:43:57.029Z,18.90
2019-01-05T05:47:19.553Z,18.10
2019-01-05T05:50:37.570Z,17.47
2019-01-05T05:53:59.881Z,17.30
2019-01-05T05:57:34.939Z,15.93
2019-01-05T06:00:59.960Z,16.17
2019-01-05T06:04:36.803Z,15.97
2019-01-05T06:07:58.361Z,14.17
2019-01-05T06:11:27.899Z,12.90
2019-01-05T06:15:06.642Z,11.30
2019-01-05T06:18:44.770Z,11.37
2019-01-05T06:22:31.649Z,11.23
2019-01-05T06:26:14.698Z,9.87
2019-01-05T06:29:49.587Z,10.13
2019-01-05T06:33:25.334Z,9.83
2019-01-05T06:37:18.711Z,9.20
2019-01-05T06:40:32.454Z,9.53
2019-01-05T06:44:31.309Z,9.47
2019-01-05T06:48:01.852Z,9.20
2019-01-05T06:51:40.577Z,8.87
2019-01-05T06:55:00.841Z,8.87
2019-01-05T06:58:46.131Z,9.27
2019-01-05T07:02:33.234Z,10.10
2019-01-05T07:06:05.869Z,9.33
2019-01-05T07:09:28.708Z,8.67
2019-01-05T07:13:21.960Z,8.47
2019-01-05T07:17:15.626Z,8.47
2019-01-05T07:20:47.902Z,8.30
2019-01-05T07:24:19.419Z,12.07
2019-01-05T07:27:53.315Z,9.73
2019-01-05T07:31:09.450Z,8.73
2019-01-05T07:34:34.158Z,7.73
2019-01-05T07:38:09.690Z,8.53
2019-01-05T07:41:36.457Z,8.23
2019-01-05T07:44:52.705Z,8.43
2019-01-05T07:48:32.867Z,8.90
2019-01-05T07:51:55.568Z,8.67
2019-01-05T07:55:19.656Z,8.90
2019-01-05T07:59:24.833Z,7.67
2019-01-05T08:02:52.456Z,9.43
2019-01-05T08:06:41.517Z,9.60
2019-01-05T08:10:03.060Z,8.60
2019-01-05T08:13:29.749Z,9.13
2019-01-05T08:16:57.768Z,9.30
2019-01-05T08:20:28.913Z,11.20
2019-01-05T08:24:02.226Z,11.67
2019-01-05T08:27:32.054Z,9.83
2019-01-05T08:31:10.619Z,10.83
2019-01-05T08:34:32.614Z,11.13
2019-01-05T08:38:05.872Z,11.03
2019-01-05T08:41:39.000Z,10.97
2019-01-05T08:44:58.499Z,11.23
2019-01-05T08:48:25.310Z,12.37
2019-01-05T08:51:39.673Z,12.10
2019-01-05T08:55:10.742Z,13.67
2019-01-05T08:58:37.576Z,12.60
2019-01-05T09:02:35.541Z,12.57
2019-01-05T09:06:20.426Z,13.13
2019-01-05T09:09:53.585Z,14.03
2019-01-05T09:13:25.046Z,13.80
2019-01-05T09:16:58.813Z,14.40
2019-01-05T09:20:36.616Z,14.37
2019-01-05T09:24:12.245Z,13.73
2019-01-05T09:27:47.606Z,13.67
2019-01-05T09:31:11.961Z,13.37
2019-01-05T09:34:34.574Z,13.20
2019-01-05T09:38:00.185Z,13.97
2019-01-05T09:41:21.419Z,14.73
2019-01-05T09:44:39.447Z,14.60
2019-01-05T09:48:21.697Z,15.97
2019-01-05T09:52:05.530Z,15.03
2019-01-05T09:55:44.460Z,15.50
2019-01-05T09:59:10.478Z,15.93
2019-01-05T10:02:48.511Z,17.03
2019-01-05T10:06:26.795Z,16.47
2019-01-05T10:09:53.426Z,17.97
2019-01-05T10:13:21.680Z,16.50
2019-01-05T10:16:48.216Z,15.70
2019-01-05T10:20:05.460Z,16.47
2019-01-05T10:23:35.582Z,15.97
2019-01-05T10:27:08.930Z,15.73
2019-01-05T10:30:47.766Z,16.37
2019-01-05T10:34:17.695Z,15.37
2019-01-05T10:37:39.850Z,15.57
2019-01-05T10:41:02.842Z,15.70
2019-01-05T10:44:28.035Z,16.23
2019-01-05T10:47:36.580Z,15.13
2019-01-05T10:51:18.653Z,14.00
2019-01-05T10:54:53.556Z,14.60
2019-01-05T10:58:16.895Z,16.93
2019-01-05T11:01:36.874Z,17.30
2019-01-05T11:04:55.485Z,15.10
2019-01-05T11:08:29.127Z,15.07
2019-01-05T11:12:12.249Z,14.43
2019-01-05T11:15:42.743Z,15.53
2019-01-05T11:19:22.536Z,14.47
2019-01-05T11:23:02.926Z,13.93
2019-01-05T11:26:21.555Z,14.67
2019-01-05T11:29:55.010Z,15.50
2019-01-05T11:33:34.530Z,14.23
2019-01-05T11:37:31.741Z,15.60
2019-01-05T11:40:57.608Z,19.60
2019-01-05T11:44:14.501Z,17.23
2019-01-05T11:47:15.265Z,17.53
2019-01-05T11:50:48.048Z,21.63
2019-01-05T11:54:06.819Z,18.17
2019-01-05T11:57:50.079Z,20.10
2019-01-05T12:01:06.259Z,18.00
2019-01-05T12:05:01.561Z,19.73
2019-01-05T12:08:44.591Z,25.90
2019-01-05T12:12:07.702Z,17.23
2019-01-05T12:15:47.693Z,15.90
2019-01-05T12:19:21.148Z,17.00
2019-01-05T12:22:43.927Z,16.07
2019-01-05T12:26:26.071Z,14.37
2019-01-05T12:29:48.080Z,18.93
2019-01-05T12:33:14.213Z,14.83
2019-01-05T12:37:16.916Z,20.23
2019-01-05T12:40:33.026Z,15.20
2019-01-05T12:44:25.209Z,13.63
2019-01-05T12:47:47.641Z,12.80
2019-01-05T12:50:58.199Z,62.07
2019-01-05T12:54:04.384Z,15.40
2019-01-05T12:57:34.136Z,10.13
2019-01-05T13:01:10.811Z,11.10
2019-01-05T13:05:00.543Z,9.90
2019-01-05T13:08:22.354Z,8.30
2019-01-05T13:11:45.141Z,9.77
2019-01-05T13:15:18.491Z,5.77
2019-01-05T13:18:54.750Z,6.87
2019-01-05T13:22:25.006Z,7.30
2019-01-05T13:26:11.703Z,6.07
2019-01-05T13:29:35.192Z,6.00
2019-01-05T13:33:10.094Z,6.40
2019-01-05T13:36:52.575Z,4.77
2019-01-05T13:40:50.901Z,4.73
2019-01-05T13:44:39.392Z,4.90
2019-01-05T13:48:28.598Z,4.27
2019-01-05T13:51:52.673Z,4.00
2019-01-05T13:54:50.806Z,3.77
2019-01-05T13:57:40.953Z,4.47
2019-01-05T14:00:21.101Z,4.10
2019-01-05T14:03:18.385Z,4.43
2019-01-05T14:06:05.992Z,3.67
2019-01-05T14:09:13.549Z,3.37
2019-01-05T14:12:09.893Z,2.70
2019-01-05T14:15:03.846Z,2.47
2019-01-05T14:17:58.936Z,2.53
2019-01-05T14:20:47.087Z,2.00
2019-01-05T14:23:34.436Z,1.90
2019-01-05T14:26:25.387Z,1.47
2019-01-05T14:29:13.721Z,1.53
2019-01-05T14:32:00.338Z,1.10
2019-01-05T14:34:51.415Z,0.90
2019-01-05T14:37:37.298Z,1.00
2019-01-05T14:40:24.941Z,1.10
2019-01-05T14:43:11.934Z,1.30
2019-01-05T14:46:00.577Z,1.20
2019-01-05T14:48:50.298Z,2.23
2019-01-05T14:51:57.084Z,1.97
2019-01-05T14:54:46.001Z,1.07
2019-01-05T14:57:50.910Z,1.73
2019-01-05T15:00:36.092Z,1.47
2019-01-05T15:03:23.206Z,1.33
2019-01-05T15:06:09.875Z,1.10
2019-01-05T15:09:15.911Z,1.00
2019-01-05T15:12:05.921Z,0.90
2019-01-05T15:14:55.186Z,0.90
2019-01-05T15:17:55.482Z,0.80
2019-01-05T15:20:42.156Z,1.03
2019-01-05T15:23:42.057Z,0.90
2019-01-05T15:26:28.869Z,1.07
2019-01-05T15:29:15.496Z,1.10
2019-01-05T15:32:03.506Z,1.00
2019-01-05T15:34:50.395Z,0.87
2019-01-05T15:37:41.142Z,1.20
2019-01-05T15:40:35.043Z,0.83
2019-01-05T15:43:29.093Z,1.10
2019-01-05T15:46:42.484Z,1.13
2019-01-05T15:49:24.540Z,1.00
2019-01-05T15:52:12.702Z,1.30
2019-01-05T15:55:06.769Z,1.10
2019-01-05T15:57:53.333Z,1.10
2019-01-05T16:00:40.536Z,1.10
2019-01-05T16:03:32.687Z,1.10
2019-01-05T16:06:27.000Z,1.00
2019-01-05T16:09:16.636Z,1.03
2019-01-05T16:12:04.089Z,0.90
2019-01-05T16:14:54.234Z,1.10
2019-01-05T16:17:39.304Z,1.10
2019-01-05T16:20:38.036Z,1.00
2019-01-05T16:23:37.901Z,2.27
2019-01-05T16:26:38.086Z,8.27
2019-01-05T16:29:26.764Z,3.60
2019-01-05T16:32:13.315Z,4.30
2019-01-05T16:34:59.891Z,2.40
2019-01-05T16:37:47.033Z,2.80
2019-01-05T16:40:33.667Z,3.00
2019-01-05T16:43:26.694Z,3.10
2019-01-05T16:46:26.805Z,2.30
2019-01-05T16:49:29.825Z,2.40
2019-01-05T16:52:38.702Z,1.63
2019-01-05T16:55:29.047Z,1.87
2019-01-05T16:58:36.840Z,2.23
2019-01-05T17:01:33.773Z,1.23
2019-01-05T17:04:35.349Z,1.43
2019-01-05T17:07:43.308Z,4.47
2019-01-05T17:10:31.372Z,2.60
2019-01-05T17:13:31.366Z,1.90
2019-01-05T17:16:17.046Z,2.30
2019-01-05T17:19:05.185Z,1.40
2019-01-05T17:22:07.171Z,1.23
2019-01-05T17:24:53.767Z,1.47
2019-01-05T17:27:42.359Z,1.10
2019-01-05T17:30:33.011Z,1.37
2019-01-05T17:33:33.678Z,1.07
2019-01-05T17:36:24.015Z,1.10
2019-01-05T17:39:27.314Z,1.10
2019-01-05T17:42:16.228Z,1.40
2019-01-05T17:45:22.946Z,1.03
2019-01-05T17:48:25.175Z,1.20
2019-01-05T17:51:22.051Z,0.93
2019-01-05T17:54:12.572Z,1.20
2019-01-05T17:56:46.807Z,1.40
2019-01-05T17:59:54.137Z,1.07
2019-01-05T18:03:03.803Z,1.10
2019-01-05T18:05:52.425Z,0.97
2019-01-05T18:08:29.416Z,0.90
2019-01-05T18:11:10.052Z,3.67
2019-01-05T18:13:57.863Z,1.40
2019-01-05T18:16:44.922Z,1.07
2019-01-05T18:19:44.396Z,1.43
2019-01-05T18:22:36.244Z,1.90
2019-01-05T18:25:36.559Z,1.30
2019-01-05T18:28:25.640Z,1.40
2019-01-05T18:31:12.829Z,1.17
2019-01-05T18:33:59.547Z,1.90
2019-01-05T18:36:48.485Z,1.30
2019-01-05T18:39:39.241Z,1.40
2019-01-05T18:42:45.627Z,1.37
2019-01-05T18:45:32.584Z,1.80
2019-01-05T18:48:20.754Z,1.40
2019-01-05T18:51:11.411Z,1.50
2019-01-05T18:54:12.010Z,1.33
2019-01-05T18:56:58.981Z,1.50
2019-01-05T18:59:56.187Z,1.57
2019-01-05T19:02:47.084Z,1.63
2019-01-05T19:05:35.018Z,2.73
2019-01-05T19:08:23.991Z,5.67
2019-01-05T19:11:10.794Z,3.73
2019-01-05T19:14:11.253Z,2.77
2019-01-05T19:17:02.460Z,11.17
2019-01-05T19:19:54.485Z,3.60
2019-01-05T19:22:57.503Z,3.27
2019-01-05T19:25:44.619Z,2.67
2019-01-05T19:28:22.488Z,2.37
2019-01-05T19:31:11.221Z,2.30
2019-01-05T19:34:02.357Z,2.23
2019-01-05T19:36:53.044Z,2.83
2019-01-05T19:39:39.684Z,2.37
2019-01-05T19:42:28.188Z,2.40
2019-01-05T19:45:17.499Z,2.33
2019-01-05T19:48:04.167Z,2.07
2019-01-05T19:50:51.449Z,2.23
2019-01-05T19:53:46.089Z,1.87
2019-01-05T19:56:34.308Z,2.00
2019-01-05T19:59:20.257Z,1.97
2019-01-05T20:02:26.720Z,2.40
2019-01-05T20:05:17.943Z,3.20
2019-01-05T20:08:13.312Z,2.67
2019-01-05T20:11:03.422Z,2.60
2019-01-05T20:13:46.546Z,1.90
2019-01-05T20:16:36.904Z,2.40
2019-01-05T20:19:25.115Z,2.50
2019-01-05T20:22:16.593Z,1.80
2019-01-05T20:25:27.635Z,2.23
2019-01-05T20:28:32.253Z,2.40
2019-01-05T20:31:17.174Z,2.20
2019-01-05T20:34:08.350Z,1.90
2019-01-05T20:36:59.547Z,1.70
2019-01-05T20:39:53.818Z,1.67
2019-01-05T20:43:02.237Z,1.87
2019-01-05T20:46:00.528Z,2.00
2019-01-05T20:48:45.610Z,1.80
2019-01-05T20:51:42.236Z,2.30
2019-01-05T20:54:38.755Z,1.70
2019-01-05T20:57:25.474Z,2.20
2019-01-05T21:00:12.331Z,1.80
2019-01-05T21:03:32.228Z,1.70
2019-01-05T21:06:20.128Z,1.90
2019-01-05T21:09:14.159Z,1.80
2019-01-05T21:12:03.587Z,1.63
2019-01-05T21:14:58.811Z,1.90
2019-01-05T21:17:52.656Z,1.70
2019-01-05T21:20:55.623Z,1.70
2019-01-05T21:23:55.817Z,1.93
2019-01-05T21:26:43.803Z,2.43
2019-01-05T21:29:44.120Z,1.60
2019-01-05T21:32:32.910Z,1.50
2019-01-05T21:35:25.267Z,1.77
2019-01-05T21:38:20.883Z,1.87
2019-01-05T21:41:15.734Z,1.70
2019-01-05T21:44:09.920Z,2.03
2019-01-05T21:46:56.474Z,1.70
2019-01-05T21:49:53.695Z,1.67
2019-01-05T21:52:44.634Z,1.90
2019-01-05T21:55:41.416Z,1.90
2019-01-05T21:58:34.073Z,1.90
2019-01-05T22:01:22.713Z,2.10
2019-01-05T22:04:19.990Z,2.53
2019-01-05T22:07:13.018Z,2.07
2019-01-05T22:09:55.546Z,2.10
2019-01-05T22:13:04.182Z,2.03
2019-01-05T22:15:53.766Z,2.40
2019-01-05T22:18:40.414Z,2.40
2019-01-05T22:21:27.229Z,2.60
2019-01-05T22:24:23.882Z,2.47
2019-01-05T22:27:10.668Z,2.47
2019-01-05T22:30:05.186Z,2.30
2019-01-05T22:32:54.828Z,2.40
2019-01-05T22:35:52.695Z,2.50
2019-01-05T22:38:43.643Z,2.63
2019-01-05T22:41:31.766Z,2.50
2019-01-05T22:44:18.529Z,2.40
2019-01-05T22:47:24.140Z,2.63
2019-01-05T22:50:10.387Z,2.80
2019-01-05T22:53:02.789Z,2.67
2019-01-05T22:55:53.780Z,2.97
2019-01-05T22:58:40.366Z,3.10
2019-01-05T23:01:37.519Z,3.00
2019-01-05T23:04:37.545Z,3.27
2019-01-05T23:07:34.919Z,3.27
2019-01-05T23:10:41.212Z,3.20
2019-01-05T23:13:28.037Z,2.90
2019-01-05T23:16:10.143Z,2.87
2019-01-05T23:19:03.493Z,3.33
2019-01-05T23:22:06.128Z,2.90
2019-01-05T23:24:52.889Z,3.40
2019-01-05T23:27:39.835Z,3.30
2019-01-05T23:30:37.267Z,2.63
2019-01-05T23:33:22.419Z,3.00
2019-01-05T23:36:19.377Z,3.00
2019-01-05T23:39:21.195Z,3.03
2019-01-05T23:42:08.026Z,3.17
2019-01-05T23:44:56.997Z,3.10
2019-01-05T23:47:43.875Z,3.37
2019-01-05T23:50:30.802Z,2.73
2019-01-05T23:53:13.877Z,2.90
2019-01-05T23:56:00.416Z,3.40
2019-01-05T23:58:47.357Z,2.77
